sensor_id;sensor_type;location;lat;lon;timestamp;P1;durP1;ratioP1;P2;durP2;ratioP2
28170;SDS011;15458;53.346;-1.688;2023-06-10T00:01:27;38.13;;;16.17;;
28170;SDS011;15458;53.346;-1.688;2023-06-10T00:03:53;29.75;;;16.77;;
28170;SDS011;15458;53.346;-1.688;2023-06-10T00:06:19;29.23;;;16.58;;
28170;SDS011;15458;53.346;-1.688;2023-06-10T00:08:46;29.70;;;16.60;;
28170;SDS011;15458;53.346;-1.688;2023-06-10T00:11:12;31.95;;;16.50;;
28170;SDS011;15458;53.346;-1.688;2023-06-10T00:13:38;25.13;;;11.93;;
28170;SDS011;15458;53.346;-1.688;2023-06-10T00:16:05;30.02;;;17.58;;
28170;SDS011;15458;53.346;-1.688;2023-06-10T00:18:30;33.35;;;16.35;;
28170;SDS011;15458;53.346;-1.688;2023-06-10T00:20:57;33.30;;;18.38;;
28170;SDS011;15458;53.346;-1.688;2023-06-10T00:23:28;36.03;;;18.67;;
28170;SDS011;15458;53.346;-1.688;2023-06-10T00:25:56;35.22;;;18.77;;
28170;SDS011;15458;53.346;-1.688;2023-06-10T00:28:24;21.92;;;13.60;;
28170;SDS011;15458;53.346;-1.688;2023-06-10T00:30:51;35.72;;;18.58;;
28170;SDS011;15458;53.346;-1.688;2023-06-10T00:33:17;36.53;;;18.63;;
28170;SDS011;15458;53.346;-1.688;2023-06-10T00:35:42;33.33;;;20.00;;
28170;SDS011;15458;53.346;-1.688;2023-06-10T00:38:08;40.67;;;20.10;;
28170;SDS011;15458;53.346;-1.688;2023-06-10T00:40:38;42.78;;;20.20;;
28170;SDS011;15458;53.346;-1.688;2023-06-10T00:43:05;39.47;;;20.65;;
28170;SDS011;15458;53.346;-1.688;2023-06-10T00:45:32;37.35;;;19.25;;
28170;SDS011;15458;53.346;-1.688;2023-06-10T00:47:58;30.65;;;16.63;;
28170;SDS011;15458;53.346;-1.688;2023-06-10T00:50:27;41.45;;;22.02;;
28170;SDS011;15458;53.346;-1.688;2023-06-10T00:52:53;41.28;;;19.90;;
28170;SDS011;15458;53.346;-1.688;2023-06-10T00:55:20;34.08;;;20.90;;
28170;SDS011;15458;53.346;-1.688;2023-06-10T00:57:46;41.47;;;20.10;;
28170;SDS011;15458;53.346;-1.688;2023-06-10T01:00:13;37.17;;;20.55;;
28170;SDS011;15458;53.346;-1.688;2023-06-10T01:02:40;39.20;;;19.90;;
28170;SDS011;15458;53.346;-1.688;2023-06-10T01:05:06;33.13;;;21.15;;
28170;SDS011;15458;53.346;-1.688;2023-06-10T01:07:43;42.33;;;21.75;;
28170;SDS011;15458;53.346;-1.688;2023-06-10T01:10:12;33.38;;;20.55;;
28170;SDS011;15458;53.346;-1.688;2023-06-10T01:12:52;31.98;;;19.60;;
28170;SDS011;15458;53.346;-1.688;2023-06-10T01:15:24;33.25;;;19.75;;
28170;SDS011;15458;53.346;-1.688;2023-06-10T01:20:20;32.28;;;16.10;;
28170;SDS011;15458;53.346;-1.688;2023-06-10T01:22:45;32.45;;;18.52;;
28170;SDS011;15458;53.346;-1.688;2023-06-10T01:25:12;31.30;;;18.02;;
28170;SDS011;15458;53.346;-1.688;2023-06-10T01:27:38;34.22;;;18.33;;
28170;SDS011;15458;53.346;-1.688;2023-06-10T01:30:08;32.58;;;17.67;;
28170;SDS011;15458;53.346;-1.688;2023-06-10T01:32:44;27.20;;;18.23;;
28170;SDS011;15458;53.346;-1.688;2023-06-10T01:35:13;32.13;;;16.45;;
28170;SDS011;15458;53.346;-1.688;2023-06-10T01:37:40;26.17;;;15.32;;
28170;SDS011;15458;53.346;-1.688;2023-06-10T01:40:10;38.05;;;18.08;;
28170;SDS011;15458;53.346;-1.688;2023-06-10T01:42:37;36.50;;;18.98;;
28170;SDS011;15458;53.346;-1.688;2023-06-10T01:45:03;37.38;;;18.65;;
28170;SDS011;15458;53.346;-1.688;2023-06-10T01:47:29;34.40;;;16.63;;
28170;SDS011;15458;53.346;-1.688;2023-06-10T01:49:55;37.25;;;18.88;;
28170;SDS011;15458;53.346;-1.688;2023-06-10T01:52:21;38.67;;;18.83;;
28170;SDS011;15458;53.346;-1.688;2023-06-10T01:54:46;32.55;;;18.23;;
28170;SDS011;15458;53.346;-1.688;2023-06-10T01:57:12;36.08;;;19.58;;
28170;SDS011;15458;53.346;-1.688;2023-06-10T01:59:38;31.45;;;19.40;;
28170;SDS011;15458;53.346;-1.688;2023-06-10T02:02:04;37.22;;;18.63;;
28170;SDS011;15458;53.346;-1.688;2023-06-10T02:04:30;29.85;;;18.40;;
28170;SDS011;15458;53.346;-1.688;2023-06-10T02:06:56;31.80;;;16.98;;
28170;SDS011;15458;53.346;-1.688;2023-06-10T02:09:21;32.70;;;17.77;;
28170;SDS011;15458;53.346;-1.688;2023-06-10T02:11:51;34.55;;;17.75;;
28170;SDS011;15458;53.346;-1.688;2023-06-10T02:14:16;34.90;;;15.98;;
28170;SDS011;15458;53.346;-1.688;2023-06-10T02:16:42;30.45;;;16.77;;
28170;SDS011;15458;53.346;-1.688;2023-06-10T02:19:10;33.60;;;17.27;;
28170;SDS011;15458;53.346;-1.688;2023-06-10T02:21:36;34.42;;;17.27;;
28170;SDS011;15458;53.346;-1.688;2023-06-10T02:24:01;34.55;;;18.33;;
28170;SDS011;15458;53.346;-1.688;2023-06-10T02:26:28;31.92;;;16.00;;
28170;SDS011;15458;53.346;-1.688;2023-06-10T02:28:53;34.83;;;17.00;;
28170;SDS011;15458;53.346;-1.688;2023-06-10T02:31:19;33.42;;;17.77;;
28170;SDS011;15458;53.346;-1.688;2023-06-10T02:33:46;33.95;;;16.15;;
28170;SDS011;15458;53.346;-1.688;2023-06-10T02:36:11;24.75;;;16.02;;
28170;SDS011;15458;53.346;-1.688;2023-06-10T02:38:40;30.80;;;17.63;;
28170;SDS011;15458;53.346;-1.688;2023-06-10T02:41:07;30.27;;;16.10;;
28170;SDS011;15458;53.346;-1.688;2023-06-10T02:43:32;28.98;;;16.30;;
28170;SDS011;15458;53.346;-1.688;2023-06-10T02:45:58;36.33;;;18.20;;
28170;SDS011;15458;53.346;-1.688;2023-06-10T02:48:24;27.52;;;16.45;;
28170;SDS011;15458;53.346;-1.688;2023-06-10T02:50:50;32.35;;;17.42;;
28170;SDS011;15458;53.346;-1.688;2023-06-10T02:53:15;31.98;;;17.40;;
28170;SDS011;15458;53.346;-1.688;2023-06-10T02:55:41;33.55;;;17.20;;
28170;SDS011;15458;53.346;-1.688;2023-06-10T02:58:07;28.13;;;17.08;;
28170;SDS011;15458;53.346;-1.688;2023-06-10T03:00:33;32.67;;;18.42;;
28170;SDS011;15458;53.346;-1.688;2023-06-10T03:02:59;33.90;;;19.02;;
28170;SDS011;15458;53.346;-1.688;2023-06-10T03:05:27;31.40;;;18.15;;
28170;SDS011;15458;53.346;-1.688;2023-06-10T03:07:54;30.75;;;15.45;;
28170;SDS011;15458;53.346;-1.688;2023-06-10T03:10:19;36.53;;;17.35;;
28170;SDS011;15458;53.346;-1.688;2023-06-10T03:12:45;37.53;;;18.65;;
28170;SDS011;15458;53.346;-1.688;2023-06-10T03:15:11;30.95;;;17.92;;
28170;SDS011;15458;53.346;-1.688;2023-06-10T03:17:36;31.98;;;17.23;;
28170;SDS011;15458;53.346;-1.688;2023-06-10T03:20:02;40.00;;;18.17;;
28170;SDS011;15458;53.346;-1.688;2023-06-10T03:22:30;35.38;;;17.52;;
28170;SDS011;15458;53.346;-1.688;2023-06-10T03:24:56;29.92;;;15.68;;
28170;SDS011;15458;53.346;-1.688;2023-06-10T03:27:22;34.35;;;17.45;;
28170;SDS011;15458;53.346;-1.688;2023-06-10T03:29:48;29.15;;;16.08;;
28170;SDS011;15458;53.346;-1.688;2023-06-10T03:32:14;28.25;;;16.75;;
28170;SDS011;15458;53.346;-1.688;2023-06-10T03:34:40;29.20;;;16.77;;
28170;SDS011;15458;53.346;-1.688;2023-06-10T03:37:06;29.92;;;16.42;;
28170;SDS011;15458;53.346;-1.688;2023-06-10T03:39:32;33.00;;;15.65;;
28170;SDS011;15458;53.346;-1.688;2023-06-10T03:41:58;29.52;;;16.58;;
28170;SDS011;15458;53.346;-1.688;2023-06-10T03:44:24;29.25;;;16.25;;
28170;SDS011;15458;53.346;-1.688;2023-06-10T03:46:51;27.13;;;15.30;;
28170;SDS011;15458;53.346;-1.688;2023-06-10T03:49:17;27.52;;;15.18;;
28170;SDS011;15458;53.346;-1.688;2023-06-10T03:51:42;27.70;;;15.25;;
28170;SDS011;15458;53.346;-1.688;2023-06-10T03:54:08;25.48;;;14.55;;
28170;SDS011;15458;53.346;-1.688;2023-06-10T03:56:34;27.33;;;13.15;;
28170;SDS011;15458;53.346;-1.688;2023-06-10T03:59:00;29.70;;;14.30;;
28170;SDS011;15458;53.346;-1.688;2023-06-10T04:01:26;27.73;;;14.65;;
28170;SDS011;15458;53.346;-1.688;2023-06-10T04:03:52;30.08;;;14.25;;
28170;SDS011;15458;53.346;-1.688;2023-06-10T04:06:19;28.13;;;13.27;;
28170;SDS011;15458;53.346;-1.688;2023-06-10T04:08:47;25.65;;;14.50;;
28170;SDS011;15458;53.346;-1.688;2023-06-10T04:11:13;23.83;;;13.85;;
28170;SDS011;15458;53.346;-1.688;2023-06-10T04:13:39;32.97;;;14.73;;
28170;SDS011;15458;53.346;-1.688;2023-06-10T04:16:05;34.85;;;15.15;;
28170;SDS011;15458;53.346;-1.688;2023-06-10T04:18:30;24.02;;;13.10;;
28170;SDS011;15458;53.346;-1.688;2023-06-10T04:20:56;29.00;;;15.40;;
28170;SDS011;15458;53.346;-1.688;2023-06-10T04:23:22;22.98;;;13.60;;
28170;SDS011;15458;53.346;-1.688;2023-06-10T04:25:47;28.92;;;13.98;;
28170;SDS011;15458;53.346;-1.688;2023-06-10T04:28:13;29.90;;;14.57;;
28170;SDS011;15458;53.346;-1.688;2023-06-10T04:30:39;25.17;;;14.10;;
28170;SDS011;15458;53.346;-1.688;2023-06-10T04:33:06;27.42;;;14.73;;
28170;SDS011;15458;53.346;-1.688;2023-06-10T04:35:34;26.48;;;13.32;;
28170;SDS011;15458;53.346;-1.688;2023-06-10T04:38:00;29.40;;;13.50;;
28170;SDS011;15458;53.346;-1.688;2023-06-10T04:40:28;24.55;;;12.18;;
28170;SDS011;15458;53.346;-1.688;2023-06-10T04:42:53;24.80;;;11.98;;
28170;SDS011;15458;53.346;-1.688;2023-06-10T04:45:19;22.70;;;11.85;;
28170;SDS011;15458;53.346;-1.688;2023-06-10T04:47:45;23.40;;;11.63;;
28170;SDS011;15458;53.346;-1.688;2023-06-10T04:50:10;20.70;;;10.82;;
28170;SDS011;15458;53.346;-1.688;2023-06-10T04:52:37;22.63;;;11.32;;
28170;SDS011;15458;53.346;-1.688;2023-06-10T04:55:02;24.55;;;10.68;;
28170;SDS011;15458;53.346;-1.688;2023-06-10T04:57:28;25.55;;;10.82;;
28170;SDS011;15458;53.346;-1.688;2023-06-10T04:59:54;21.55;;;11.50;;
28170;SDS011;15458;53.346;-1.688;2023-06-10T05:02:19;25.30;;;11.07;;
28170;SDS011;15458;53.346;-1.688;2023-06-10T05:04:45;24.13;;;11.20;;
28170;SDS011;15458;53.346;-1.688;2023-06-10T05:07:11;25.92;;;11.85;;
28170;SDS011;15458;53.346;-1.688;2023-06-10T05:09:37;21.48;;;10.10;;
28170;SDS011;15458;53.346;-1.688;2023-06-10T05:12:04;24.35;;;11.05;;
28170;SDS011;15458;53.346;-1.688;2023-06-10T05:14:30;20.55;;;11.15;;
28170;SDS011;15458;53.346;-1.688;2023-06-10T05:16:56;25.45;;;11.80;;
28170;SDS011;15458;53.346;-1.688;2023-06-10T05:19:22;24.30;;;11.75;;
28170;SDS011;15458;53.346;-1.688;2023-06-10T05:21:47;21.88;;;11.90;;
28170;SDS011;15458;53.346;-1.688;2023-06-10T05:24:13;25.85;;;12.45;;
28170;SDS011;15458;53.346;-1.688;2023-06-10T05:26:39;28.80;;;11.82;;
28170;SDS011;15458;53.346;-1.688;2023-06-10T05:29:06;21.52;;;11.52;;
28170;SDS011;15458;53.346;-1.688;2023-06-10T05:31:33;25.40;;;12.02;;
28170;SDS011;15458;53.346;-1.688;2023-06-10T05:33:58;19.92;;;11.05;;
28170;SDS011;15458;53.346;-1.688;2023-06-10T05:36:27;26.23;;;11.93;;
28170;SDS011;15458;53.346;-1.688;2023-06-10T05:38:53;23.73;;;10.77;;
28170;SDS011;15458;53.346;-1.688;2023-06-10T05:41:18;29.45;;;13.60;;
28170;SDS011;15458;53.346;-1.688;2023-06-10T05:43:45;25.25;;;12.57;;
28170;SDS011;15458;53.346;-1.688;2023-06-10T05:46:10;25.10;;;10.63;;
28170;SDS011;15458;53.346;-1.688;2023-06-10T05:48:36;30.85;;;12.40;;
28170;SDS011;15458;53.346;-1.688;2023-06-10T05:51:02;24.10;;;10.30;;
28170;SDS011;15458;53.346;-1.688;2023-06-10T05:53:27;25.17;;;10.85;;
28170;SDS011;15458;53.346;-1.688;2023-06-10T05:55:53;27.85;;;12.25;;
28170;SDS011;15458;53.346;-1.688;2023-06-10T05:58:22;23.65;;;10.77;;
28170;SDS011;15458;53.346;-1.688;2023-06-10T06:00:48;25.45;;;11.60;;
28170;SDS011;15458;53.346;-1.688;2023-06-10T06:03:14;27.85;;;12.60;;
28170;SDS011;15458;53.346;-1.688;2023-06-10T06:05:40;28.58;;;12.60;;
28170;SDS011;15458;53.346;-1.688;2023-06-10T06:08:06;26.58;;;12.65;;
28170;SDS011;15458;53.346;-1.688;2023-06-10T06:10:33;24.33;;;12.85;;
28170;SDS011;15458;53.346;-1.688;2023-06-10T06:12:59;30.83;;;13.20;;
28170;SDS011;15458;53.346;-1.688;2023-06-10T06:15:26;24.98;;;11.73;;
28170;SDS011;15458;53.346;-1.688;2023-06-10T06:17:52;24.90;;;11.00;;
28170;SDS011;15458;53.346;-1.688;2023-06-10T06:20:18;28.83;;;12.27;;
28170;SDS011;15458;53.346;-1.688;2023-06-10T06:22:44;27.20;;;12.70;;
28170;SDS011;15458;53.346;-1.688;2023-06-10T06:25:10;26.23;;;12.02;;
28170;SDS011;15458;53.346;-1.688;2023-06-10T06:27:35;31.58;;;12.45;;
28170;SDS011;15458;53.346;-1.688;2023-06-10T06:30:01;26.17;;;12.25;;
28170;SDS011;15458;53.346;-1.688;2023-06-10T06:32:28;32.60;;;12.38;;
28170;SDS011;15458;53.346;-1.688;2023-06-10T06:34:53;28.65;;;12.32;;
28170;SDS011;15458;53.346;-1.688;2023-06-10T06:37:23;27.17;;;11.43;;
28170;SDS011;15458;53.346;-1.688;2023-06-10T06:39:53;28.42;;;11.73;;
28170;SDS011;15458;53.346;-1.688;2023-06-10T06:42:19;26.98;;;11.48;;
28170;SDS011;15458;53.346;-1.688;2023-06-10T06:44:46;28.58;;;11.48;;
28170;SDS011;15458;53.346;-1.688;2023-06-10T06:47:12;31.83;;;13.02;;
28170;SDS011;15458;53.346;-1.688;2023-06-10T06:49:38;28.95;;;12.65;;
28170;SDS011;15458;53.346;-1.688;2023-06-10T06:52:04;20.35;;;9.88;;
28170;SDS011;15458;53.346;-1.688;2023-06-10T06:54:30;29.02;;;12.13;;
28170;SDS011;15458;53.346;-1.688;2023-06-10T06:56:56;26.80;;;11.88;;
28170;SDS011;15458;53.346;-1.688;2023-06-10T06:59:22;28.88;;;11.88;;
28170;SDS011;15458;53.346;-1.688;2023-06-10T07:01:48;24.67;;;11.70;;
28170;SDS011;15458;53.346;-1.688;2023-06-10T07:04:14;23.10;;;11.32;;
28170;SDS011;15458;53.346;-1.688;2023-06-10T07:06:41;29.83;;;12.93;;
28170;SDS011;15458;53.346;-1.688;2023-06-10T07:09:09;27.70;;;11.18;;
28170;SDS011;15458;53.346;-1.688;2023-06-10T07:11:35;27.48;;;10.65;;
28170;SDS011;15458;53.346;-1.688;2023-06-10T07:14:01;26.42;;;10.02;;
28170;SDS011;15458;53.346;-1.688;2023-06-10T07:16:26;23.02;;;10.70;;
28170;SDS011;15458;53.346;-1.688;2023-06-10T07:18:52;23.42;;;10.60;;
28170;SDS011;15458;53.346;-1.688;2023-06-10T07:21:18;29.98;;;12.65;;
28170;SDS011;15458;53.346;-1.688;2023-06-10T07:23:44;34.88;;;12.55;;
28170;SDS011;15458;53.346;-1.688;2023-06-10T07:26:10;27.92;;;11.75;;
28170;SDS011;15458;53.346;-1.688;2023-06-10T07:28:38;24.67;;;10.48;;
28170;SDS011;15458;53.346;-1.688;2023-06-10T07:31:04;27.65;;;12.20;;
28170;SDS011;15458;53.346;-1.688;2023-06-10T07:33:31;25.45;;;10.55;;
28170;SDS011;15458;53.346;-1.688;2023-06-10T07:35:56;25.58;;;10.40;;
28170;SDS011;15458;53.346;-1.688;2023-06-10T07:38:22;27.63;;;9.52;;
28170;SDS011;15458;53.346;-1.688;2023-06-10T07:40:48;24.83;;;10.48;;
28170;SDS011;15458;53.346;-1.688;2023-06-10T07:43:13;26.77;;;10.73;;
28170;SDS011;15458;53.346;-1.688;2023-06-10T07:45:39;23.95;;;11.25;;
28170;SDS011;15458;53.346;-1.688;2023-06-10T07:48:06;25.92;;;9.93;;
28170;SDS011;15458;53.346;-1.688;2023-06-10T07:50:32;33.17;;;11.00;;
28170;SDS011;15458;53.346;-1.688;2023-06-10T07:52:58;22.23;;;9.32;;
28170;SDS011;15458;53.346;-1.688;2023-06-10T07:55:24;19.73;;;10.00;;
28170;SDS011;15458;53.346;-1.688;2023-06-10T07:57:51;27.58;;;11.52;;
28170;SDS011;15458;53.346;-1.688;2023-06-10T08:00:17;22.95;;;9.60;;
28170;SDS011;15458;53.346;-1.688;2023-06-10T08:02:45;19.63;;;9.77;;
28170;SDS011;15458;53.346;-1.688;2023-06-10T08:05:11;22.95;;;10.55;;
28170;SDS011;15458;53.346;-1.688;2023-06-10T08:07:37;26.70;;;10.27;;
28170;SDS011;15458;53.346;-1.688;2023-06-10T08:10:05;23.98;;;9.15;;
28170;SDS011;15458;53.346;-1.688;2023-06-10T08:12:31;26.42;;;9.75;;
28170;SDS011;15458;53.346;-1.688;2023-06-10T08:15:00;25.80;;;8.38;;
28170;SDS011;15458;53.346;-1.688;2023-06-10T08:17:26;20.63;;;8.82;;
28170;SDS011;15458;53.346;-1.688;2023-06-10T08:19:52;24.58;;;7.93;;
28170;SDS011;15458;53.346;-1.688;2023-06-10T08:22:17;18.13;;;7.93;;
28170;SDS011;15458;53.346;-1.688;2023-06-10T08:24:43;19.90;;;8.02;;
28170;SDS011;15458;53.346;-1.688;2023-06-10T08:27:11;22.45;;;7.45;;
28170;SDS011;15458;53.346;-1.688;2023-06-10T08:29:37;19.67;;;7.93;;
28170;SDS011;15458;53.346;-1.688;2023-06-10T08:32:04;21.52;;;8.32;;
28170;SDS011;15458;53.346;-1.688;2023-06-10T08:34:33;18.88;;;7.18;;
28170;SDS011;15458;53.346;-1.688;2023-06-10T08:37:00;17.85;;;8.40;;
28170;SDS011;15458;53.346;-1.688;2023-06-10T08:39:26;26.10;;;7.57;;
28170;SDS011;15458;53.346;-1.688;2023-06-10T08:44:40;15.80;;;7.38;;
28170;SDS011;15458;53.346;-1.688;2023-06-10T08:47:13;18.33;;;7.70;;
28170;SDS011;15458;53.346;-1.688;2023-06-10T08:49:46;20.92;;;8.65;;
28170;SDS011;15458;53.346;-1.688;2023-06-10T08:52:14;19.55;;;8.60;;
28170;SDS011;15458;53.346;-1.688;2023-06-10T08:55:09;19.45;;;7.90;;
28170;SDS011;15458;53.346;-1.688;2023-06-10T08:57:37;17.63;;;7.35;;
28170;SDS011;15458;53.346;-1.688;2023-06-10T09:00:03;13.35;;;7.03;;
28170;SDS011;15458;53.346;-1.688;2023-06-10T09:02:31;16.42;;;7.80;;
28170;SDS011;15458;53.346;-1.688;2023-06-10T09:05:03;17.30;;;7.53;;
28170;SDS011;15458;53.346;-1.688;2023-06-10T09:07:30;20.33;;;7.80;;
28170;SDS011;15458;53.346;-1.688;2023-06-10T09:10:01;21.52;;;7.72;;
28170;SDS011;15458;53.346;-1.688;2023-06-10T09:12:32;16.02;;;7.00;;
28170;SDS011;15458;53.346;-1.688;2023-06-10T09:15:00;15.02;;;6.80;;
28170;SDS011;15458;53.346;-1.688;2023-06-10T09:17:28;17.33;;;6.70;;
28170;SDS011;15458;53.346;-1.688;2023-06-10T09:19:54;15.88;;;6.70;;
28170;SDS011;15458;53.346;-1.688;2023-06-10T09:22:21;15.18;;;6.80;;
28170;SDS011;15458;53.346;-1.688;2023-06-10T09:24:47;18.98;;;6.05;;
28170;SDS011;15458;53.346;-1.688;2023-06-10T09:27:13;25.98;;;9.00;;
28170;SDS011;15458;53.346;-1.688;2023-06-10T09:29:45;23.65;;;7.75;;
28170;SDS011;15458;53.346;-1.688;2023-06-10T09:32:13;17.75;;;6.25;;
28170;SDS011;15458;53.346;-1.688;2023-06-10T09:34:39;17.55;;;6.68;;
28170;SDS011;15458;53.346;-1.688;2023-06-10T09:37:05;16.90;;;7.40;;
28170;SDS011;15458;53.346;-1.688;2023-06-10T09:39:33;24.17;;;7.82;;
28170;SDS011;15458;53.346;-1.688;2023-06-10T09:41:59;12.60;;;6.35;;
28170;SDS011;15458;53.346;-1.688;2023-06-10T09:44:25;22.80;;;8.15;;
28170;SDS011;15458;53.346;-1.688;2023-06-10T09:46:51;14.65;;;7.20;;
28170;SDS011;15458;53.346;-1.688;2023-06-10T09:49:18;14.55;;;6.38;;
28170;SDS011;15458;53.346;-1.688;2023-06-10T09:51:53;13.23;;;6.60;;
28170;SDS011;15458;53.346;-1.688;2023-06-10T09:54:20;15.13;;;6.57;;
28170;SDS011;15458;53.346;-1.688;2023-06-10T09:56:47;17.92;;;6.45;;
28170;SDS011;15458;53.346;-1.688;2023-06-10T09:59:13;11.73;;;6.32;;
28170;SDS011;15458;53.346;-1.688;2023-06-10T10:01:39;17.52;;;7.80;;
28170;SDS011;15458;53.346;-1.688;2023-06-10T10:04:05;20.20;;;6.60;;
28170;SDS011;15458;53.346;-1.688;2023-06-10T10:06:31;18.80;;;7.30;;
28170;SDS011;15458;53.346;-1.688;2023-06-10T10:08:57;17.55;;;7.40;;
28170;SDS011;15458;53.346;-1.688;2023-06-10T10:11:23;18.27;;;7.20;;
28170;SDS011;15458;53.346;-1.688;2023-06-10T10:13:51;19.02;;;7.25;;
28170;SDS011;15458;53.346;-1.688;2023-06-10T10:16:19;20.70;;;7.53;;
28170;SDS011;15458;53.346;-1.688;2023-06-10T10:18:53;16.40;;;6.90;;
28170;SDS011;15458;53.346;-1.688;2023-06-10T10:21:26;19.98;;;7.80;;
28170;SDS011;15458;53.346;-1.688;2023-06-10T10:24:07;16.20;;;7.45;;
28170;SDS011;15458;53.346;-1.688;2023-06-10T10:26:42;16.65;;;6.53;;
28170;SDS011;15458;53.346;-1.688;2023-06-10T10:31:37;19.27;;;7.07;;
28170;SDS011;15458;53.346;-1.688;2023-06-10T10:34:08;18.52;;;7.35;;
28170;SDS011;15458;53.346;-1.688;2023-06-10T10:36:38;19.50;;;6.97;;
28170;SDS011;15458;53.346;-1.688;2023-06-10T10:39:04;20.60;;;7.18;;
28170;SDS011;15458;53.346;-1.688;2023-06-10T10:41:30;19.00;;;7.30;;
28170;SDS011;15458;53.346;-1.688;2023-06-10T10:43:57;19.20;;;7.35;;
28170;SDS011;15458;53.346;-1.688;2023-06-10T10:46:25;16.65;;;7.25;;
28170;SDS011;15458;53.346;-1.688;2023-06-10T10:48:52;14.85;;;6.95;;
28170;SDS011;15458;53.346;-1.688;2023-06-10T10:51:19;17.55;;;6.95;;
28170;SDS011;15458;53.346;-1.688;2023-06-10T10:54:09;16.13;;;6.80;;
28170;SDS011;15458;53.346;-1.688;2023-06-10T10:57:09;14.40;;;7.05;;
28170;SDS011;15458;53.346;-1.688;2023-06-10T11:04:58;18.08;;;6.88;;
28170;SDS011;15458;53.346;-1.688;2023-06-10T11:07:25;17.50;;;8.20;;
28170;SDS011;15458;53.346;-1.688;2023-06-10T11:10:10;16.75;;;7.10;;
28170;SDS011;15458;53.346;-1.688;2023-06-10T11:12:41;16.17;;;6.88;;
28170;SDS011;15458;53.346;-1.688;2023-06-10T11:15:12;11.07;;;6.03;;
28170;SDS011;15458;53.346;-1.688;2023-06-10T11:23:09;12.85;;;6.15;;
28170;SDS011;15458;53.346;-1.688;2023-06-10T11:25:47;14.73;;;7.32;;
28170;SDS011;15458;53.346;-1.688;2023-06-10T11:28:18;15.55;;;7.10;;
28170;SDS011;15458;53.346;-1.688;2023-06-10T11:30:45;13.00;;;6.65;;
28170;SDS011;15458;53.346;-1.688;2023-06-10T11:33:15;14.88;;;6.80;;
28170;SDS011;15458;53.346;-1.688;2023-06-10T11:35:42;13.98;;;6.93;;
28170;SDS011;15458;53.346;-1.688;2023-06-10T11:38:08;15.93;;;6.53;;
28170;SDS011;15458;53.346;-1.688;2023-06-10T11:40:36;15.40;;;6.85;;
28170;SDS011;15458;53.346;-1.688;2023-06-10T11:43:03;14.20;;;6.25;;
28170;SDS011;15458;53.346;-1.688;2023-06-10T11:45:30;14.00;;;6.80;;
28170;SDS011;15458;53.346;-1.688;2023-06-10T11:47:56;16.45;;;6.72;;
28170;SDS011;15458;53.346;-1.688;2023-06-10T11:50:30;16.33;;;8.05;;
28170;SDS011;15458;53.346;-1.688;2023-06-10T11:52:59;15.25;;;7.20;;
28170;SDS011;15458;53.346;-1.688;2023-06-10T11:55:25;13.38;;;6.80;;
28170;SDS011;15458;53.346;-1.688;2023-06-10T11:58:11;13.27;;;6.95;;
28170;SDS011;15458;53.346;-1.688;2023-06-10T12:00:47;17.05;;;6.78;;
28170;SDS011;15458;53.346;-1.688;2023-06-10T12:03:14;15.65;;;6.40;;
28170;SDS011;15458;53.346;-1.688;2023-06-10T12:05:46;21.83;;;7.85;;
28170;SDS011;15458;53.346;-1.688;2023-06-10T12:08:28;16.90;;;6.55;;
28170;SDS011;15458;53.346;-1.688;2023-06-10T12:10:56;13.38;;;6.93;;
28170;SDS011;15458;53.346;-1.688;2023-06-10T12:13:22;16.65;;;5.88;;
28170;SDS011;15458;53.346;-1.688;2023-06-10T12:15:51;12.90;;;6.50;;
28170;SDS011;15458;53.346;-1.688;2023-06-10T12:20:44;13.73;;;7.03;;
28170;SDS011;15458;53.346;-1.688;2023-06-10T12:23:10;13.05;;;6.40;;
28170;SDS011;15458;53.346;-1.688;2023-06-10T12:25:37;13.32;;;6.95;;
28170;SDS011;15458;53.346;-1.688;2023-06-10T12:28:03;14.48;;;6.38;;
28170;SDS011;15458;53.346;-1.688;2023-06-10T12:30:29;13.48;;;6.45;;
28170;SDS011;15458;53.346;-1.688;2023-06-10T12:32:56;17.30;;;7.03;;
28170;SDS011;15458;53.346;-1.688;2023-06-10T12:35:24;13.52;;;6.60;;
28170;SDS011;15458;53.346;-1.688;2023-06-10T12:37:57;20.00;;;7.05;;
28170;SDS011;15458;53.346;-1.688;2023-06-10T12:42:56;12.73;;;5.90;;
28170;SDS011;15458;53.346;-1.688;2023-06-10T12:45:26;17.17;;;7.88;;
28170;SDS011;15458;53.346;-1.688;2023-06-10T12:48:06;15.07;;;7.20;;
28170;SDS011;15458;53.346;-1.688;2023-06-10T12:50:34;19.33;;;7.00;;
28170;SDS011;15458;53.346;-1.688;2023-06-10T12:53:02;14.13;;;5.97;;
28170;SDS011;15458;53.346;-1.688;2023-06-10T12:55:28;16.15;;;6.40;;
28170;SDS011;15458;53.346;-1.688;2023-06-10T12:57:54;18.92;;;7.03;;
28170;SDS011;15458;53.346;-1.688;2023-06-10T13:00:21;18.20;;;6.20;;
28170;SDS011;15458;53.346;-1.688;2023-06-10T13:02:48;18.27;;;7.40;;
28170;SDS011;15458;53.346;-1.688;2023-06-10T13:05:15;17.83;;;7.40;;
28170;SDS011;15458;53.346;-1.688;2023-06-10T13:07:41;15.52;;;6.47;;
28170;SDS011;15458;53.346;-1.688;2023-06-10T13:10:07;17.33;;;7.55;;
28170;SDS011;15458;53.346;-1.688;2023-06-10T13:12:33;15.57;;;7.05;;
28170;SDS011;15458;53.346;-1.688;2023-06-10T13:14:58;16.70;;;7.53;;
28170;SDS011;15458;53.346;-1.688;2023-06-10T13:17:25;14.57;;;6.38;;
28170;SDS011;15458;53.346;-1.688;2023-06-10T13:19:50;18.65;;;6.93;;
28170;SDS011;15458;53.346;-1.688;2023-06-10T13:22:16;14.10;;;6.40;;
28170;SDS011;15458;53.346;-1.688;2023-06-10T13:24:42;14.57;;;7.20;;
28170;SDS011;15458;53.346;-1.688;2023-06-10T13:27:08;13.88;;;6.20;;
28170;SDS011;15458;53.346;-1.688;2023-06-10T13:29:34;15.57;;;6.15;;
28170;SDS011;15458;53.346;-1.688;2023-06-10T13:31:59;21.85;;;6.80;;
28170;SDS011;15458;53.346;-1.688;2023-06-10T13:34:25;19.25;;;6.57;;
28170;SDS011;15458;53.346;-1.688;2023-06-10T13:36:51;14.10;;;6.20;;
28170;SDS011;15458;53.346;-1.688;2023-06-10T13:39:16;14.25;;;6.55;;
28170;SDS011;15458;53.346;-1.688;2023-06-10T13:41:42;16.10;;;6.85;;
28170;SDS011;15458;53.346;-1.688;2023-06-10T13:44:08;14.35;;;6.95;;
28170;SDS011;15458;53.346;-1.688;2023-06-10T13:46:33;13.02;;;6.50;;
28170;SDS011;15458;53.346;-1.688;2023-06-10T13:48:59;16.80;;;6.63;;
28170;SDS011;15458;53.346;-1.688;2023-06-10T13:51:27;19.23;;;7.40;;
28170;SDS011;15458;53.346;-1.688;2023-06-10T13:53:53;15.45;;;6.65;;
28170;SDS011;15458;53.346;-1.688;2023-06-10T13:56:18;11.65;;;6.03;;
28170;SDS011;15458;53.346;-1.688;2023-06-10T13:58:44;13.05;;;6.47;;
28170;SDS011;15458;53.346;-1.688;2023-06-10T14:01:10;17.55;;;6.20;;
28170;SDS011;15458;53.346;-1.688;2023-06-10T14:03:36;14.02;;;6.80;;
28170;SDS011;15458;53.346;-1.688;2023-06-10T14:06:01;14.00;;;7.47;;
28170;SDS011;15458;53.346;-1.688;2023-06-10T14:08:27;14.13;;;6.60;;
28170;SDS011;15458;53.346;-1.688;2023-06-10T14:10:53;14.02;;;6.35;;
28170;SDS011;15458;53.346;-1.688;2023-06-10T14:13:19;10.18;;;5.78;;
28170;SDS011;15458;53.346;-1.688;2023-06-10T14:15:45;10.20;;;5.93;;
28170;SDS011;15458;53.346;-1.688;2023-06-10T14:18:11;13.32;;;6.65;;
28170;SDS011;15458;53.346;-1.688;2023-06-10T14:20:37;9.75;;;5.70;;
28170;SDS011;15458;53.346;-1.688;2023-06-10T14:23:03;12.57;;;6.45;;
28170;SDS011;15458;53.346;-1.688;2023-06-10T14:25:28;13.73;;;6.20;;
28170;SDS011;15458;53.346;-1.688;2023-06-10T14:27:54;9.48;;;5.55;;
28170;SDS011;15458;53.346;-1.688;2023-06-10T14:30:20;11.18;;;6.57;;
28170;SDS011;15458;53.346;-1.688;2023-06-10T14:32:45;9.38;;;5.65;;
28170;SDS011;15458;53.346;-1.688;2023-06-10T14:35:11;14.00;;;5.82;;
28170;SDS011;15458;53.346;-1.688;2023-06-10T14:37:37;14.20;;;6.15;;